Time;durP1;ratioP1;P1;durP2;ratioP2;P2;SDS_P1;SDS_P2;PMS_P1;PMS_P2;Temp;Humidity;BMP_temperature;BMP_pressure;BME280_temperature;BME280_humidity;BME280_pressure;Samples;Min_cycle;Max_cycle;Signal;HPM_P1;HPM_P2
2021/03/06 00:01:10;;;;;;;2.7;1.9;;;;;;;;;;;;;
2021/03/06 00:03:36;;;;;;;2.7;2;;;;;;;;;;;;;
2021/03/06 00:06:01;;;;;;;2.3;1.4;;;;;;;;;;;;;
2021/03/06 00:08:27;;;;;;;2.9;2.1;;;;;;;;;;;;;
2021/03/06 00:10:52;;;;;;;2.2;1.7;;;;;;;;;;;;;
2021/03/06 00:13:19;;;;;;;2.7;1.8;;;;;;;;;;;;;
2021/03/06 00:15:45;;;;;;;1.8;1.5;;;;;;;;;;;;;
2021/03/06 00:18:10;;;;;;;2.1;1.6;;;;;;;;;;;;;
2021/03/06 00:20:35;;;;;;;3.4;2;;;;;;;;;;;;;
2021/03/06 00:23:01;;;;;;;3.7;2.2;;;;;;;;;;;;;
2021/03/06 00:25:27;;;;;;;1.4;1.3;;;;;;;;;;;;;
2021/03/06 00:27:52;;;;;;;3.1;1.8;;;;;;;;;;;;;
2021/03/06 00:30:17;;;;;;;2.8;1.7;;;;;;;;;;;;;
2021/03/06 00:32:43;;;;;;;2.4;1.6;;;;;;;;;;;;;
2021/03/06 00:35:08;;;;;;;2.2;2;;;;;;;;;;;;;
2021/03/06 00:37:34;;;;;;;4.4;2.4;;;;;;;;;;;;;
2021/03/06 00:39:59;;;;;;;5.4;2.5;;;;;;;;;;;;;
2021/03/06 00:42:25;;;;;;;2.6;2.3;;;;;;;;;;;;;
2021/03/06 00:44:51;;;;;;;3.3;2.1;;;;;;;;;;;;;
2021/03/06 00:47:16;;;;;;;3.1;2.2;;;;;;;;;;;;;
2021/03/06 00:49:42;;;;;;;2.4;1.8;;;;;;;;;;;;;
2021/03/06 00:52:07;;;;;;;2.5;1.5;;;;;;;;;;;;;
2021/03/06 00:54:33;;;;;;;2.1;1.7;;;;;;;;;;;;;
2021/03/06 00:56:59;;;;;;;2.7;2.3;;;;;;;;;;;;;
2021/03/06 00:59:24;;;;;;;2.2;1.6;;;;;;;;;;;;;
2021/03/06 01:01:52;;;;;;;2.7;2;;;;;;;;;;;;;
2021/03/06 01:04:17;;;;;;;3.9;2.5;;;;;;;;;;;;;
2021/03/06 01:06:42;;;;;;;3.3;2.4;;;;;;;;;;;;;
2021/03/06 01:09:07;;;;;;;3.9;2.4;;;;;;;;;;;;;
2021/03/06 01:11:34;;;;;;;2;1.8;;;;;;;;;;;;;
2021/03/06 01:14:00;;;;;;;2.2;1.8;;;;;;;;;;;;;
2021/03/06 01:16:27;;;;;;;4.8;1.9;;;;;;;;;;;;;
2021/03/06 01:18:52;;;;;;;3.8;2.3;;;;;;;;;;;;;
2021/03/06 01:21:17;;;;;;;3.6;2.1;;;;;;;;;;;;;
2021/03/06 01:23:42;;;;;;;4.6;1.9;;;;;;;;;;;;;
2021/03/06 01:26:08;;;;;;;3.3;2.2;;;;;;;;;;;;;
2021/03/06 01:28:33;;;;;;;3.5;2.6;;;;;;;;;;;;;
2021/03/06 01:31:00;;;;;;;3.6;2.3;;;;;;;;;;;;;
2021/03/06 01:33:25;;;;;;;4;2.4;;;;;;;;;;;;;
2021/03/06 01:35:51;;;;;;;5;2.4;;;;;;;;;;;;;
2021/03/06 01:38:16;;;;;;;2.2;1.5;;;;;;;;;;;;;
2021/03/06 01:40:42;;;;;;;3.9;3;;;;;;;;;;;;;
2021/03/06 01:43:07;;;;;;;6.2;2.7;;;;;;;;;;;;;
2021/03/06 01:45:35;;;;;;;3.1;2.2;;;;;;;;;;;;;
2021/03/06 01:48:00;;;;;;;2.4;2.2;;;;;;;;;;;;;
2021/03/06 01:50:25;;;;;;;5.4;2.9;;;;;;;;;;;;;
2021/03/06 01:52:50;;;;;;;4.1;2.5;;;;;;;;;;;;;
2021/03/06 01:55:15;;;;;;;3;2.2;;;;;;;;;;;;;
2021/03/06 01:57:40;;;;;;;3.3;2.3;;;;;;;;;;;;;
2021/03/06 02:00:09;;;;;;;3.4;2.4;;;;;;;;;;;;;
2021/03/06 02:02:35;;;;;;;5.5;2.9;;;;;;;;;;;;;
2021/03/06 02:05:00;;;;;;;2.7;1.9;;;;;;;;;;;;;
2021/03/06 02:07:25;;;;;;;4.2;3.1;;;;;;;;;;;;;
2021/03/06 02:09:51;;;;;;;2.5;1.9;;;;;;;;;;;;;
2021/03/06 02:12:16;;;;;;;3.9;2.4;;;;;;;;;;;;;
2021/03/06 02:14:41;;;;;;;4.5;2.7;;;;;;;;;;;;;
2021/03/06 02:17:07;;;;;;;2.7;2.1;;;;;;;;;;;;;
2021/03/06 02:19:32;;;;;;;4.8;2.8;;;;;;;;;;;;;
2021/03/06 02:21:58;;;;;;;3.5;2.3;;;;;;;;;;;;;
2021/03/06 02:24:23;;;;;;;3.2;2.2;;;;;;;;;;;;;
2021/03/06 02:26:50;;;;;;;3.8;2.6;;;;;;;;;;;;;
2021/03/06 02:29:13;;;;;;;4;2.6;;;;;;;;;;;;;
2021/03/06 02:31:38;;;;;;;5.9;2.8;;;;;;;;;;;;;
2021/03/06 02:34:05;;;;;;;3.4;2.8;;;;;;;;;;;;;
2021/03/06 02:36:29;;;;;;;7.9;3.4;;;;;;;;;;;;;
2021/03/06 02:38:54;;;;;;;4.6;2.4;;;;;;;;;;;;;
2021/03/06 02:41:20;;;;;;;3.8;2.5;;;;;;;;;;;;;
2021/03/06 02:43:45;;;;;;;3.5;1.6;;;;;;;;;;;;;
2021/03/06 02:46:10;;;;;;;8.6;3.4;;;;;;;;;;;;;
2021/03/06 02:48:37;;;;;;;4.3;2.8;;;;;;;;;;;;;
2021/03/06 02:51:02;;;;;;;5;2.7;;;;;;;;;;;;;
2021/03/06 02:53:28;;;;;;;3.6;2.9;;;;;;;;;;;;;
2021/03/06 02:55:53;;;;;;;3.1;2.5;;;;;;;;;;;;;
2021/03/06 02:58:19;;;;;;;5.9;2.2;;;;;;;;;;;;;
2021/03/06 03:00:45;;;;;;;3.4;2.3;;;;;;;;;;;;;
2021/03/06 03:03:10;;;;;;;3.1;2.2;;;;;;;;;;;;;
2021/03/06 03:05:34;;;;;;;4.3;2.6;;;;;;;;;;;;;
2021/03/06 03:08:00;;;;;;;4.4;2.8;;;;;;;;;;;;;
2021/03/06 03:10:25;;;;;;;4.8;2;;;;;;;;;;;;;
2021/03/06 03:12:50;;;;;;;4;2.4;;;;;;;;;;;;;
2021/03/06 03:15:15;;;;;;;4.9;3;;;;;;;;;;;;;
2021/03/06 03:17:42;;;;;;;5.7;2.9;;;;;;;;;;;;;
2021/03/06 03:20:07;;;;;;;3.1;2;;;;;;;;;;;;;
2021/03/06 03:22:32;;;;;;;3.8;3;;;;;;;;;;;;;
2021/03/06 03:24:57;;;;;;;5.2;3.2;;;;;;;;;;;;;
2021/03/06 03:27:22;;;;;;;2.6;2;;;;;;;;;;;;;
2021/03/06 03:29:48;;;;;;;6.4;2.9;;;;;;;;;;;;;
2021/03/06 03:32:13;;;;;;;3.1;2.3;;;;;;;;;;;;;
2021/03/06 03:34:39;;;;;;;5.3;2.8;;;;;;;;;;;;;
2021/03/06 03:37:04;;;;;;;4.5;2.8;;;;;;;;;;;;;
2021/03/06 03:39:30;;;;;;;3.6;2.8;;;;;;;;;;;;;
2021/03/06 03:41:55;;;;;;;3.4;2.3;;;;;;;;;;;;;
2021/03/06 03:44:22;;;;;;;6;2.6;;;;;;;;;;;;;
2021/03/06 03:46:47;;;;;;;3.3;2.8;;;;;;;;;;;;;
2021/03/06 03:49:13;;;;;;;3.6;2.4;;;;;;;;;;;;;
2021/03/06 03:51:38;;;;;;;4.6;3.3;;;;;;;;;;;;;
2021/03/06 03:54:04;;;;;;;5;3.2;;;;;;;;;;;;;
2021/03/06 03:56:29;;;;;;;4;2.2;;;;;;;;;;;;;
2021/03/06 03:58:55;;;;;;;3.7;3;;;;;;;;;;;;;
2021/03/06 04:02:35;;;;;;;5.7;3.3;;;;;;;2.14;80.76855;946.9128;;;;
2021/03/06 04:05:00;;;;;;;3.3;2.6;;;;;;;2.08;81.0918;946.9127;;;;
2021/03/06 04:07:28;;;;;;;4.4;3;;;;;;;2.03;81.36133;946.9202;;;;
2021/03/06 04:09:53;;;;;;;5.2;3.5;;;;;;;1.9;81.89648;946.9861;;;;
2021/03/06 04:12:19;;;;;;;3.9;3.3;;;;;;;1.86;82.1123;946.9283;;;;
2021/03/06 04:14:45;;;;;;;3.8;2.8;;;;;;;2.02;81.70898;946.9213;;;;
2021/03/06 04:17:10;;;;;;;3.8;2.3;;;;;;;2.03;81.76465;947.0267;;;;
2021/03/06 04:19:35;;;;;;;3.8;2.7;;;;;;;2.09;81.58496;947.0103;;;;
2021/03/06 04:22:01;;;;;;;4.3;2.7;;;;;;;2.12;81.3584;947.0656;;;;
2021/03/06 04:24:27;;;;;;;2.8;2.1;;;;;;;2.18;81.08887;947.0106;;;;
2021/03/06 04:26:54;;;;;;;5.6;3.2;;;;;;;2;81.32324;947.0697;;;;
2021/03/06 04:29:19;;;;;;;3.3;2.4;;;;;;;2.02;81.09277;947.0924;;;;
2021/03/06 04:31:46;;;;;;;5.9;2.9;;;;;;;2.08;80.93555;947.077;;;;
2021/03/06 04:34:11;;;;;;;5.2;3;;;;;;;2.2;80.92578;947.1273;;;;
2021/03/06 04:36:40;;;;;;;4.4;2.5;;;;;;;2.05;81.12109;947.1255;;;;
2021/03/06 04:39:05;;;;;;;5.4;3.1;;;;;;;2.01;81.53711;947.1372;;;;
2021/03/06 04:41:31;;;;;;;5.3;3.5;;;;;;;2.07;81.53809;947.1666;;;;
2021/03/06 04:43:56;;;;;;;6.1;3;;;;;;;2.11;81.19824;947.1795;;;;
2021/03/06 04:46:24;;;;;;;4;3;;;;;;;2.06;81.20117;947.2188;;;;
2021/03/06 04:48:49;;;;;;;5.5;3.2;;;;;;;2.1;81.26367;947.2286;;;;
2021/03/06 04:51:19;;;;;;;3.9;2.5;;;;;;;2.06;81.48047;947.2753;;;;
2021/03/06 04:53:46;;;;;;;7.1;2.5;;;;;;;2.03;81.55176;947.2516;;;;
2021/03/06 04:56:12;;;;;;;3.8;2.9;;;;;;;2.01;81.24609;947.2087;;;;
2021/03/06 04:58:38;;;;;;;6.5;3.6;;;;;;;2.04;80.98242;947.2101;;;;
2021/03/06 05:01:03;;;;;;;5.7;3.3;;;;;;;2.02;81.06934;947.2634;;;;
2021/03/06 05:03:32;;;;;;;4;2.6;;;;;;;2.04;80.68262;947.2397;;;;
2021/03/06 05:05:57;;;;;;;4.7;2.8;;;;;;;1.88;81.27832;947.1967;;;;
2021/03/06 05:08:25;;;;;;;6;3.4;;;;;;;1.89;81.31348;947.1875;;;;
2021/03/06 05:10:50;;;;;;;4.9;3.1;;;;;;;2.03;80.61133;947.1423;;;;
2021/03/06 05:13:17;;;;;;;4.4;2.6;;;;;;;2.11;80.15723;947.084;;;;
2021/03/06 05:15:58;;;;;;;7.7;4.8;;;;;;;2.11;80.70703;947.0551;;;;
2021/03/06 05:18:23;;;;;;;7.3;4.9;;;;;;;2.06;81.11133;947.0561;;;;
2021/03/06 05:20:51;;;;;;;6;4.2;;;;;;;2.06;81.41309;946.9901;;;;
2021/03/06 05:23:16;;;;;;;8.8;4.6;;;;;;;2.11;81.06543;947.0032;;;;
2021/03/06 05:25:44;;;;;;;3.9;2.6;;;;;;;1.98;80.38867;946.9702;;;;
2021/03/06 05:28:09;;;;;;;3;2.3;;;;;;;1.86;81.06152;946.9464;;;;
2021/03/06 05:30:37;;;;;;;5.5;3.6;;;;;;;1.71;81.8252;946.91;;;;
2021/03/06 05:33:02;;;;;;;5.3;3.4;;;;;;;1.77;82.15039;946.9228;;;;
2021/03/06 05:35:31;;;;;;;6.7;3.7;;;;;;;1.89;81.88379;946.9017;;;;
2021/03/06 05:37:56;;;;;;;4;3.2;;;;;;;1.9;81.53906;946.9009;;;;
2021/03/06 05:40:24;;;;;;;4.6;2.2;;;;;;;1.97;81.59766;946.9021;;;;
2021/03/06 05:42:49;;;;;;;6.3;3.8;;;;;;;1.94;81.40039;946.8856;;;;
2021/03/06 05:45:16;;;;;;;4.5;3.3;;;;;;;1.92;81.91113;946.8883;;;;
2021/03/06 05:47:41;;;;;;;4.6;2.9;;;;;;;1.89;82.25195;946.8066;;;;
2021/03/06 05:50:09;;;;;;;5.6;3.6;;;;;;;1.89;82.25293;946.8162;;;;
2021/03/06 05:52:34;;;;;;;7.3;3.2;;;;;;;1.89;82.39844;946.843;;;;
2021/03/06 05:54:59;;;;;;;6.1;3.7;;;;;;;1.92;82.58301;946.9357;;;;
2021/03/06 05:57:24;;;;;;;6.4;3.3;;;;;;;1.93;82.70996;946.9498;;;;
2021/03/06 05:59:49;;;;;;;5.5;2.8;;;;;;;1.94;82.52148;946.962;;;;
2021/03/06 06:02:14;;;;;;;4.9;3.5;;;;;;;1.94;82.54395;946.9048;;;;
2021/03/06 06:04:40;;;;;;;8;4.2;;;;;;;2.01;82.37695;946.9944;;;;
2021/03/06 06:07:05;;;;;;;5.8;3.1;;;;;;;2;82.16211;947.0237;;;;
2021/03/06 06:09:33;;;;;;;6.8;4.1;;;;;;;1.94;82.58789;947.0515;;;;
2021/03/06 06:11:58;;;;;;;2.5;2;;;;;;;2.01;82.04102;947.0994;;;;
2021/03/06 06:14:24;;;;;;;6.8;3.2;;;;;;;2.01;80.61816;947.0499;;;;
2021/03/06 06:16:49;;;;;;;3.9;3.1;;;;;;;2;79.54297;947.0834;;;;
2021/03/06 06:19:14;;;;;;;5.6;3.7;;;;;;;2.03;80.1748;947.0883;;;;
2021/03/06 06:21:41;;;;;;;3.4;2.5;;;;;;;2.01;80.55078;947.1331;;;;
2021/03/06 06:24:06;;;;;;;8.4;4.2;;;;;;;2.05;81.09863;947.0502;;;;
2021/03/06 06:26:34;;;;;;;5.6;3.5;;;;;;;2.1;80.91699;947.0859;;;;
2021/03/06 06:29:01;;;;;;;6.9;4;;;;;;;2.16;80.66895;947.0871;;;;
2021/03/06 06:31:26;;;;;;;4.9;3.3;;;;;;;2.18;80.83105;947.0939;;;;
2021/03/06 06:33:52;;;;;;;4.8;3.4;;;;;;;2.23;80.8623;947.0884;;;;
2021/03/06 06:36:17;;;;;;;6.9;2.9;;;;;;;2.06;80.12598;947.0717;;;;
2021/03/06 06:38:42;;;;;;;6.4;3.5;;;;;;;2.03;80.64551;947.1511;;;;
2021/03/06 06:41:08;;;;;;;6.9;3.3;;;;;;;2;80.79688;947.152;;;;
2021/03/06 06:43:33;;;;;;;6.4;4;;;;;;;2.24;81.04297;947.0966;;;;
2021/03/06 06:45:59;;;;;;;7.2;4.7;;;;;;;2.83;79.82129;947.2108;;;;
2021/03/06 06:48:24;;;;;;;8.8;4.2;;;;;;;3.55;77.03809;947.1633;;;;
2021/03/06 06:50:52;;;;;;;4.8;2.9;;;;;;;4.25;71.94434;947.1724;;;;
2021/03/06 06:53:17;;;;;;;3.4;2;;;;;;;4.87;66.30078;947.182;;;;
2021/03/06 06:55:46;;;;;;;2.7;2.1;;;;;;;5.02;64.27246;947.2567;;;;
2021/03/06 06:58:11;;;;;;;3.6;2.5;;;;;;;5.25;64.55469;947.2615;;;;
2021/03/06 07:00:41;;;;;;;3.6;2.1;;;;;;;5.68;62.32813;947.2285;;;;
2021/03/06 07:03:09;;;;;;;2.7;1.7;;;;;;;5.6;61.22168;947.3069;;;;
2021/03/06 07:05:36;;;;;;;5.2;2.6;;;;;;;5.82;62.04395;947.2578;;;;
2021/03/06 07:08:01;;;;;;;4.5;2.1;;;;;;;6.09;60.00391;947.3903;;;;
2021/03/06 07:10:26;;;;;;;3.2;1.8;;;;;;;6.34;59.04297;947.3959;;;;
2021/03/06 07:12:51;;;;;;;3;1.9;;;;;;;7.34;58.49121;947.4084;;;;
2021/03/06 07:15:17;;;;;;;2.4;1.3;;;;;;;7.89;55.55957;947.413;;;;
2021/03/06 07:17:51;;;;;;;2.3;1.2;;;;;;;8.49;53.11328;947.4308;;;;
2021/03/06 07:20:16;;;;;;;2.9;1.4;;;;;;;8.35;53.9834;947.4727;;;;
2021/03/06 07:22:41;;;;;;;3.8;1.6;;;;;;;8.94;52.95313;947.4381;;;;
2021/03/06 07:25:12;;;;;;;2;1;;;;;;;9.18;52.27637;947.4009;;;;
2021/03/06 07:27:41;;;;;;;1.3;1;;;;;;;9.23;52.4082;947.4376;;;;
2021/03/06 07:30:07;;;;;;;2.1;1.4;;;;;;;9.83;49.88184;947.4084;;;;
2021/03/06 07:32:32;;;;;;;2.1;1.7;;;;;;;9.65;49.85938;947.3928;;;;
2021/03/06 07:34:57;;;;;;;3.9;1.7;;;;;;;10.29;49.27344;947.4156;;;;
2021/03/06 07:37:22;;;;;;;2.6;1.7;;;;;;;10.12;49.97168;947.3804;;;;
2021/03/06 07:39:47;;;;;;;2.2;1.7;;;;;;;10.47;48.84766;947.4354;;;;
2021/03/06 07:42:16;;;;;;;2.1;1.4;;;;;;;10.15;50.19336;947.4712;;;;
2021/03/06 07:44:40;;;;;;;2.5;1.9;;;;;;;10.58;48.62109;947.4723;;;;
2021/03/06 07:47:05;;;;;;;2.1;1.9;;;;;;;9.72;50.33594;947.445;;;;
2021/03/06 07:49:31;;;;;;;3.6;2.3;;;;;;;10.52;48.97949;947.4088;;;;
2021/03/06 07:52:01;;;;;;;3.6;1.8;;;;;;;11.19;46.25391;947.4211;;;;
2021/03/06 07:54:25;;;;;;;3.8;1.6;;;;;;;11.75;44.13867;947.4614;;;;
2021/03/06 07:56:52;;;;;;;3.2;1.5;;;;;;;10.85;46.18359;947.4961;;;;
2021/03/06 07:59:17;;;;;;;4;2;;;;;;;11.09;45.90039;947.4475;;;;
2021/03/06 08:01:45;;;;;;;1.3;1.2;;;;;;;12.31;42.52148;947.457;;;;
2021/03/06 08:04:09;;;;;;;3.3;1.6;;;;;;;12.38;43.13574;947.4836;;;;
2021/03/06 08:06:34;;;;;;;0.7;0.7;;;;;;;11.5;43.23145;947.4783;;;;
2021/03/06 08:09:01;;;;;;;0.8;0.7;;;;;;;11.16;43.00293;947.4785;;;;
2021/03/06 08:11:26;;;;;;;1;0.9;;;;;;;11.27;44.26172;947.5212;;;;
2021/03/06 08:13:53;;;;;;;1.4;0.7;;;;;;;11.37;42.18848;947.4586;;;;
2021/03/06 08:16:32;;;;;;;1.3;0.9;;;;;;;11.93;42.56445;947.459;;;;
2021/03/06 08:19:01;;;;;;;1.9;1;;;;;;;11.93;40.89258;947.4304;;;;
2021/03/06 08:21:30;;;;;;;0.9;0.7;;;;;;;11.49;40.59766;947.4302;;;;
2021/03/06 08:23:54;;;;;;;1.2;0.9;;;;;;;11.28;41.07129;947.4752;;;;
2021/03/06 08:26:20;;;;;;;0.7;0.5;;;;;;;11.49;40.0957;947.4327;;;;
2021/03/06 08:28:45;;;;;;;1.4;0.8;;;;;;;11.62;41.10254;947.418;;;;
2021/03/06 08:31:10;;;;;;;1.3;0.8;;;;;;;11.34;39.36035;947.3965;;;;
2021/03/06 08:33:35;;;;;;;2.3;1.4;;;;;;;13.38;40.9707;947.3408;;;;
2021/03/06 08:36:03;;;;;;;1.4;1.2;;;;;;;13.25;42.49902;947.4135;;;;
2021/03/06 08:38:30;;;;;;;1.5;0.9;;;;;;;14.44;39.37695;947.3981;;;;
2021/03/06 08:40:55;;;;;;;2.1;0.8;;;;;;;15.49;33.61816;947.4673;;;;
2021/03/06 08:43:22;;;;;;;1.5;1.1;;;;;;;16.34;35.2793;947.4695;;;;
2021/03/06 08:45:47;;;;;;;1.4;0.8;;;;;;;17.91;32.73438;947.4072;;;;
2021/03/06 08:48:13;;;;;;;3.5;1.2;;;;;;;18.29;32.27539;947.4358;;;;
2021/03/06 08:50:38;;;;;;;1.9;1.2;;;;;;;18.63;31.34668;947.4169;;;;
2021/03/06 08:53:03;;;;;;;1.9;1.5;;;;;;;18.17;31.77734;947.3958;;;;
2021/03/06 08:55:31;;;;;;;1.5;0.7;;;;;;;17.38;31.9541;947.4858;;;;
2021/03/06 08:57:56;;;;;;;2.7;1;;;;;;;16.4;34.9375;947.4728;;;;
2021/03/06 09:00:23;;;;;;;1.8;1;;;;;;;16.39;35.5957;947.488;;;;
2021/03/06 09:02:48;;;;;;;2.2;1.4;;;;;;;16.09;35.80273;947.4686;;;;
2021/03/06 09:05:15;;;;;;;1.8;1.4;;;;;;;15.55;36.6709;947.5053;;;;
2021/03/06 09:07:40;;;;;;;1;0.9;;;;;;;15.4;36.10449;947.5957;;;;
2021/03/06 09:10:11;;;;;;;1.8;1.2;;;;;;;15.09;36.69043;947.5076;;;;
2021/03/06 09:12:42;;;;;;;1.7;1.1;;;;;;;16.22;34.14746;947.5343;;;;
2021/03/06 09:15:08;;;;;;;2.4;1.4;;;;;;;16.2;34.79297;947.4801;;;;
2021/03/06 09:17:39;;;;;;;1.2;0.9;;;;;;;15.6;35;947.5115;;;;
2021/03/06 09:20:05;;;;;;;1.1;1;;;;;;;15.95;35.21289;947.4903;;;;
2021/03/06 09:22:29;;;;;;;2;1;;;;;;;15.68;35.74609;947.3363;;;;
2021/03/06 09:24:57;;;;;;;3.6;0.9;;;;;;;16.57;32.78613;947.3848;;;;
2021/03/06 09:27:22;;;;;;;1.6;1.2;;;;;;;16.2;34.00781;947.272;;;;
2021/03/06 09:29:47;;;;;;;1.3;1;;;;;;;16.53;33.16504;947.368;;;;
2021/03/06 09:32:12;;;;;;;2.2;1.3;;;;;;;16.32;34.65332;947.3593;;;;
2021/03/06 09:34:42;;;;;;;1.4;0.8;;;;;;;16.3;34.4541;947.3488;;;;
2021/03/06 09:37:05;;;;;;;2;1.4;;;;;;;16.64;33.32324;947.2622;;;;
2021/03/06 09:39:32;;;;;;;1.4;1.1;;;;;;;16.51;34.06543;947.2601;;;;
2021/03/06 09:41:58;;;;;;;1;0.9;;;;;;;17.07;32.46289;947.3016;;;;
2021/03/06 09:44:23;;;;;;;1.7;1.2;;;;;;;17.46;32.27246;947.2347;;;;
2021/03/06 09:46:48;;;;;;;1.2;1;;;;;;;17.29;32.94336;947.1889;;;;
2021/03/06 09:49:16;;;;;;;1.7;1.2;;;;;;;17.79;31.15918;947.2656;;;;
2021/03/06 09:51:41;;;;;;;1.5;1;;;;;;;17.81;31.49707;947.201;;;;
2021/03/06 09:54:11;;;;;;;3.2;1.1;;;;;;;16.41;34.67285;947.2244;;;;
2021/03/06 09:56:36;;;;;;;3.9;0.9;;;;;;;16.6;33.72559;947.1381;;;;
2021/03/06 09:59:06;;;;;;;0.8;0.7;;;;;;;15.17;36.70898;947.2353;;;;
2021/03/06 10:01:31;;;;;;;1.1;0.7;;;;;;;13.8;39.08887;947.1881;;;;
2021/03/06 10:04:00;;;;;;;2.8;0.9;;;;;;;14.02;38.25781;947.1623;;;;
2021/03/06 10:06:29;;;;;;;1.2;0.9;;;;;;;14;38.78516;947.1955;;;;
2021/03/06 10:08:54;;;;;;;6.5;1.1;;;;;;;13.1;42.5293;947.274;;;;
2021/03/06 10:11:24;;;;;;;1.2;0.9;;;;;;;12.84;41.9873;947.2467;;;;
2021/03/06 10:13:49;;;;;;;3.5;1;;;;;;;12.31;41.8457;947.3149;;;;
2021/03/06 10:16:32;;;;;;;1.3;1;;;;;;;12.41;43.21875;947.2605;;;;
2021/03/06 10:19:01;;;;;;;2;1.2;;;;;;;11.88;42.70801;947.2729;;;;
2021/03/06 10:21:31;;;;;;;1.9;0.9;;;;;;;12.02;42.88184;947.2622;;;;
2021/03/06 10:24:02;;;;;;;2.2;1.1;;;;;;;12.03;43.23926;947.2751;;;;
2021/03/06 10:26:26;;;;;;;1.5;1.1;;;;;;;11.63;44.29785;947.3194;;;;
2021/03/06 10:28:52;;;;;;;3.2;1.4;;;;;;;11.85;45.15723;947.3195;;;;
2021/03/06 10:31:19;;;;;;;1.3;1.1;;;;;;;11.3;46.17383;947.3432;;;;
2021/03/06 10:33:47;;;;;;;2;1.2;;;;;;;11.67;46.05371;947.3553;;;;
2021/03/06 10:36:18;;;;;;;2.6;1.1;;;;;;;11.67;45.80273;947.3912;;;;
2021/03/06 10:38:42;;;;;;;1.1;1;;;;;;;12.24;43.71777;947.3201;;;;
2021/03/06 10:41:11;;;;;;;2.5;1.3;;;;;;;12.09;44.84961;947.3179;;;;
2021/03/06 10:43:38;;;;;;;2;1.2;;;;;;;11.94;43.21777;947.3139;;;;
2021/03/06 10:46:01;;;;;;;1.5;1;;;;;;;12.56;43.26953;947.3066;;;;
2021/03/06 10:48:30;;;;;;;1.2;1.1;;;;;;;13.04;42.53613;947.338;;;;
2021/03/06 10:50:55;;;;;;;1.5;1.2;;;;;;;13.85;40.95801;947.265;;;;
2021/03/06 10:53:21;;;;;;;5.4;1.2;;;;;;;13.77;40.375;947.2126;;;;
2021/03/06 10:55:46;;;;;;;2.3;1;;;;;;;13.29;42.84668;947.231;;;;
2021/03/06 10:58:14;;;;;;;2.6;1.3;;;;;;;12.66;42.78516;947.2068;;;;
2021/03/06 11:00:43;;;;;;;2.6;1.5;;;;;;;12.7;43.68457;947.2698;;;;
2021/03/06 11:03:08;;;;;;;1.3;1;;;;;;;12.57;44.37109;947.1772;;;;
2021/03/06 11:05:37;;;;;;;1.8;1.3;;;;;;;12.27;44.51172;947.2678;;;;
2021/03/06 11:08:02;;;;;;;1.6;1;;;;;;;12.11;45.2627;947.2886;;;;
2021/03/06 11:10:28;;;;;;;3.3;1.4;;;;;;;11.81;47.75098;947.2378;;;;
2021/03/06 11:12:53;;;;;;;2.4;1.3;;;;;;;11.05;49.8291;947.1383;;;;
2021/03/06 11:15:29;;;;;;;2.9;2.2;;;;;;;10.75;51.38086;947.2145;;;;
2021/03/06 11:17:55;;;;;;;1.5;1;;;;;;;11.64;47.76758;947.2255;;;;
2021/03/06 11:20:19;;;;;;;1.3;1;;;;;;;11.4;47.82129;947.2025;;;;
2021/03/06 11:22:45;;;;;;;1.8;1.3;;;;;;;10.87;49.75;947.2081;;;;
2021/03/06 11:25:10;;;;;;;1.1;1;;;;;;;10.8;48.16504;947.1305;;;;
2021/03/06 11:27:39;;;;;;;1.4;1.2;;;;;;;11.1;48.4502;947.1903;;;;
2021/03/06 11:30:04;;;;;;;1.2;1.1;;;;;;;11.14;47.62109;947.0502;;;;
2021/03/06 11:32:29;;;;;;;2.7;1.1;;;;;;;10.94;48.66113;947.1434;;;;
2021/03/06 11:34:54;;;;;;;2.9;1.2;;;;;;;11.19;47.21387;947.0837;;;;
2021/03/06 11:37:20;;;;;;;2.3;1.2;;;;;;;11.28;47.37207;947.1522;;;;
2021/03/06 11:39:45;;;;;;;1.2;1.1;;;;;;;11.74;47.18359;947.0352;;;;
2021/03/06 11:42:12;;;;;;;2.6;1.2;;;;;;;11.23;47.3916;947.0524;;;;
2021/03/06 11:44:37;;;;;;;2.2;1.2;;;;;;;11.3;47.53516;947.0776;;;;
2021/03/06 11:47:02;;;;;;;1.9;1.4;;;;;;;11.7;48.51855;946.9835;;;;
2021/03/06 11:49:27;;;;;;;1.1;1;;;;;;;12.64;45.68555;946.9972;;;;
2021/03/06 11:51:53;;;;;;;1.4;1.1;;;;;;;12.77;44.89648;946.921;;;;
2021/03/06 11:54:19;;;;;;;2.3;1.4;;;;;;;12.66;44.66699;946.8666;;;;
2021/03/06 11:56:45;;;;;;;1.7;1.1;;;;;;;12.53;46.3623;946.9633;;;;
2021/03/06 11:59:10;;;;;;;1.1;1;;;;;;;12.59;46.18457;946.9194;;;;
2021/03/06 12:01:36;;;;;;;1.5;1.3;;;;;;;12.76;44.53906;946.9224;;;;
2021/03/06 12:04:01;;;;;;;2.5;1.3;;;;;;;13.34;44.02441;946.9164;;;;
2021/03/06 12:06:28;;;;;;;2.5;1;;;;;;;13.32;43.70117;946.8722;;;;
2021/03/06 12:08:56;;;;;;;1.3;1;;;;;;;13.44;44.26465;946.801;;;;
2021/03/06 12:11:22;;;;;;;1.2;0.9;;;;;;;14.73;40.69531;946.8445;;;;
2021/03/06 12:13:47;;;;;;;1.9;1.3;;;;;;;16.28;37.14844;946.7452;;;;
2021/03/06 12:16:23;;;;;;;1.6;1.5;;;;;;;16.99;34.72949;946.7631;;;;
2021/03/06 12:18:54;;;;;;;2.3;1.1;;;;;;;16.95;34.40137;946.6875;;;;
2021/03/06 12:21:22;;;;;;;6.1;0.9;;;;;;;17;35.12402;946.6472;;;;
2021/03/06 12:23:46;;;;;;;1.9;1.1;;;;;;;16.04;36.68945;946.6128;;;;
2021/03/06 12:26:14;;;;;;;1.3;1;;;;;;;15.59;37.33301;946.6211;;;;
2021/03/06 12:28:39;;;;;;;2;1.6;;;;;;;14.81;40.51855;946.6197;;;;
2021/03/06 12:31:07;;;;;;;2.7;1.1;;;;;;;16.12;37.22754;946.5535;;;;
2021/03/06 12:33:32;;;;;;;2.2;1.2;;;;;;;17.06;35.64941;946.4849;;;;
2021/03/06 12:36:01;;;;;;;1.4;0.9;;;;;;;16.58;35.24121;946.4512;;;;
2021/03/06 12:38:26;;;;;;;2.4;1;;;;;;;15.86;38.00293;946.5117;;;;
2021/03/06 12:40:54;;;;;;;2;1.3;;;;;;;15.56;39.02832;946.4264;;;;
2021/03/06 12:43:19;;;;;;;1.1;1;;;;;;;16.84;35.91113;946.472;;;;
2021/03/06 12:45:47;;;;;;;1.9;1.4;;;;;;;17.13;35.7373;946.3606;;;;
2021/03/06 12:48:12;;;;;;;1.1;0.8;;;;;;;15.39;37.70801;946.4278;;;;
2021/03/06 12:50:43;;;;;;;1.1;1;;;;;;;14.4;38.82129;946.4403;;;;
2021/03/06 12:53:11;;;;;;;1.7;1.2;;;;;;;12.46;44.2334;946.4174;;;;
2021/03/06 12:55:36;;;;;;;2.2;1.2;;;;;;;11.9;46.45605;946.3795;;;;
2021/03/06 12:58:06;;;;;;;1.2;1.1;;;;;;;12.42;44.0918;946.3225;;;;
2021/03/06 13:00:37;;;;;;;1.4;1;;;;;;;13.24;43.11719;946.2336;;;;
2021/03/06 13:03:13;;;;;;;1.3;1.2;;;;;;;13.65;42.49121;946.2388;;;;
2021/03/06 13:05:40;;;;;;;3.4;1.3;;;;;;;14.47;40.77344;946.225;;;;
2021/03/06 13:08:05;;;;;;;1.5;1.4;;;;;;;13.65;41.84766;946.1451;;;;
2021/03/06 13:10:32;;;;;;;1.6;1;;;;;;;14.3;40.4707;946.1583;;;;
2021/03/06 13:12:57;;;;;;;0.7;0.7;;;;;;;13.42;42.45801;946.0872;;;;
2021/03/06 13:15:36;;;;;;;1.9;1.1;;;;;;;13.46;42.23145;946.0644;;;;
2021/03/06 13:18:01;;;;;;;1.1;0.9;;;;;;;14.26;39.25781;946.0939;;;;
2021/03/06 13:20:26;;;;;;;2;1.2;;;;;;;15.39;37.73145;946.0803;;;;
2021/03/06 13:22:51;;;;;;;1.9;1;;;;;;;16.22;36.63379;946.052;;;;
2021/03/06 13:25:17;;;;;;;2.2;0.9;;;;;;;15.53;37.63965;946.0723;;;;
2021/03/06 13:27:42;;;;;;;1.6;0.9;;;;;;;17.01;34.89258;946.0244;;;;
2021/03/06 13:30:07;;;;;;;2.9;1;;;;;;;17.6;33.41895;945.9802;;;;
2021/03/06 13:32:34;;;;;;;1.6;1.4;;;;;;;17.1;34.20508;945.9881;;;;
2021/03/06 13:34:59;;;;;;;1.3;1;;;;;;;16.84;36.33984;945.9419;;;;
2021/03/06 13:37:27;;;;;;;1.9;1;;;;;;;17.27;34.11426;945.9314;;;;
2021/03/06 13:39:52;;;;;;;1.5;1.4;;;;;;;18.33;32.27734;945.8671;;;;
2021/03/06 13:42:17;;;;;;;2;1.1;;;;;;;19.05;30.84082;945.8745;;;;
2021/03/06 13:44:42;;;;;;;2.8;1.2;;;;;;;18.34;31.26758;945.8114;;;;
2021/03/06 13:47:08;;;;;;;1.8;1.1;;;;;;;18.81;31.30078;945.7974;;;;
2021/03/06 13:49:33;;;;;;;2.3;1.1;;;;;;;18.96;30.13574;945.7874;;;;
2021/03/06 13:52:00;;;;;;;2.5;1.1;;;;;;;18.96;30.41602;945.7566;;;;
2021/03/06 13:54:25;;;;;;;1.2;0.8;;;;;;;19.06;30.88867;945.8058;;;;
2021/03/06 13:56:52;;;;;;;1.3;0.9;;;;;;;18.09;32.81836;945.7824;;;;
2021/03/06 13:59:17;;;;;;;1.8;0.9;;;;;;;17.87;32.66211;945.7177;;;;
2021/03/06 14:01:42;;;;;;;1.9;0.9;;;;;;;17.96;32.26172;945.7436;;;;
2021/03/06 14:04:08;;;;;;;1.5;0.9;;;;;;;16.23;35.76855;945.7992;;;;
2021/03/06 14:06:35;;;;;;;1.7;0.9;;;;;;;17.03;34.40723;945.7341;;;;
2021/03/06 14:09:00;;;;;;;1.7;1.1;;;;;;;16.3;35.73926;945.7341;;;;
2021/03/06 14:11:26;;;;;;;1.4;1;;;;;;;16.68;35.37598;945.7248;;;;
2021/03/06 14:13:51;;;;;;;2.5;1.1;;;;;;;16.09;36.2998;945.6511;;;;
2021/03/06 14:16:20;;;;;;;1.3;1.1;;;;;;;14.4;39.41992;945.6894;;;;
2021/03/06 14:18:51;;;;;;;2.6;1.1;;;;;;;13.76;41.60547;945.6749;;;;
2021/03/06 14:21:17;;;;;;;3;1.3;;;;;;;13.75;41.35059;945.6619;;;;
2021/03/06 14:23:42;;;;;;;1.4;1.3;;;;;;;14.26;39.72949;945.678;;;;
2021/03/06 14:26:08;;;;;;;2.3;1.3;;;;;;;14.82;39.66504;945.6434;;;;
2021/03/06 14:28:34;;;;;;;2.2;1.6;;;;;;;15.74;37.63379;945.6108;;;;
2021/03/06 14:30:59;;;;;;;1.8;1;;;;;;;14.95;39.23926;945.6127;;;;
2021/03/06 14:33:25;;;;;;;1.5;1;;;;;;;15.41;37.7334;945.6591;;;;
2021/03/06 14:35:50;;;;;;;1.9;1.1;;;;;;;15.22;38.73242;945.6738;;;;
2021/03/06 14:38:16;;;;;;;3.8;1.2;;;;;;;15.48;37.53027;945.6411;;;;
2021/03/06 14:40:42;;;;;;;2.1;1.1;;;;;;;15.6;38.29199;945.5911;;;;
2021/03/06 14:43:10;;;;;;;2.2;1.2;;;;;;;15.66;37.52344;945.5457;;;;
2021/03/06 14:45:36;;;;;;;1.2;1.1;;;;;;;14.25;40.60352;945.6379;;;;
2021/03/06 14:48:02;;;;;;;1.3;1.2;;;;;;;14.6;39.58887;945.5318;;;;
2021/03/06 14:50:28;;;;;;;3.1;1.2;;;;;;;14.4;39.58105;945.5789;;;;
2021/03/06 14:52:53;;;;;;;1.2;1.1;;;;;;;14.7;39.41309;945.495;;;;
2021/03/06 14:55:18;;;;;;;2.1;1.7;;;;;;;14.48;39.71484;945.5327;;;;
2021/03/06 14:57:45;;;;;;;1.7;1.1;;;;;;;14.38;39.72949;945.5524;;;;
2021/03/06 15:00:10;;;;;;;3;1.3;;;;;;;14.15;40.35352;945.552;;;;
2021/03/06 15:02:41;;;;;;;1.8;1.1;;;;;;;13.36;41.91211;945.5366;;;;
2021/03/06 15:05:08;;;;;;;1.4;1.1;;;;;;;12.47;43.68457;945.55;;;;
2021/03/06 15:07:33;;;;;;;2.2;1.5;;;;;;;12.93;43.39648;945.5149;;;;
2021/03/06 15:09:59;;;;;;;2.6;1.5;;;;;;;13.07;42.86035;945.5105;;;;
2021/03/06 15:12:24;;;;;;;4.3;1.3;;;;;;;13.25;42.25781;945.5563;;;;
2021/03/06 15:14:50;;;;;;;1.4;1.2;;;;;;;12.13;44.80762;945.4678;;;;
2021/03/06 15:17:15;;;;;;;2;1.3;;;;;;;12.18;45.05371;945.44;;;;
2021/03/06 15:19:40;;;;;;;1.9;1.3;;;;;;;11.61;46.19531;945.4656;;;;
2021/03/06 15:22:05;;;;;;;2.7;1.3;;;;;;;11.54;46.71387;945.4572;;;;
2021/03/06 15:24:30;;;;;;;1.2;1.1;;;;;;;11.13;47.52832;945.4963;;;;
2021/03/06 15:26:56;;;;;;;1.6;1.2;;;;;;;11.28;47.16699;945.5616;;;;
2021/03/06 15:29:21;;;;;;;3.4;1.4;;;;;;;11.7;46.49121;945.5726;;;;
2021/03/06 15:31:47;;;;;;;2.4;1.2;;;;;;;11.09;48.29004;945.5563;;;;
2021/03/06 15:34:12;;;;;;;1.5;1.3;;;;;;;10.63;49.14063;945.4874;;;;
2021/03/06 15:36:39;;;;;;;2.6;1.3;;;;;;;10.27;50.16016;945.5651;;;;
2021/03/06 15:39:04;;;;;;;2.9;1.4;;;;;;;9.58;51.99512;945.4927;;;;
2021/03/06 15:41:31;;;;;;;1;0.9;;;;;;;9.05;53.58008;945.5206;;;;